The Weather Forecasting Forum

Discussions about the latest in meteorology, programs, tools, and techniques
It is currently Tue Oct 22, 2019 9:02 pm

All times are UTC




Post new topic Reply to topic  [ 1 post ] 
Author Message
PostPosted: Wed Mar 13, 2019 9:48 pm 
Offline
Member

Joined: Thu Jul 15, 2004 3:42 pm
Posts: 35
Location: Kansas
Hi Tim,

Enhancement - While wind chill is calculated for both ASOS and AWOS sites, heat index is not calculated for AWOS sites, actually maybe any MTR that has AUTO text preceding the wind. There are lots of areas where there is a large distance between ASOS sites, and having it calculated for AWOS sites as well would be useful for any analysis or situational awareness. I'm not sure of the reason for this omission. Certainly the dewpoint at AWOS sites can be more frequently wonky than at ASOS sites, but it would be nice to have the option to plot/analyze the HI at all MTR sites.

See below for an example where an ASOS site (KCLL) and AWOS site (KCFD) are nearby, with the same plotted T and Td, but HI is only plotted for the ASOS site KCLL which has a HI of 87. The graphic below that shows a plotted map from the Central Plains with numerous AWOS sites without any HI.

KCFD 301955Z AUTO 00000KT 10SM CLR 27/17 A3014 RMK AO2 T02740174
KCLL 301953Z 00000KT 10SM CLR 28/17 A3012 RMK AO2 SLP195 T02780172


Attachments:
LackOfHIatAWOSsites.png
LackOfHIatAWOSsites.png [ 7.16 KiB | Viewed 15958 times ]
AWOS_No_HI.gif
AWOS_No_HI.gif [ 38.72 KiB | Viewed 15958 times ]
Top
 Profile  
 
Display posts from previous:  Sort by  
Post new topic Reply to topic  [ 1 post ] 

All times are UTC


Who is online

Users browsing this forum: No registered users and 3 guests


You cannot post new topics in this forum
You cannot reply to topics in this forum
You cannot edit your posts in this forum
You cannot delete your posts in this forum
You cannot post attachments in this forum

Search for:
Jump to:  
Powered by phpBB® Forum Software © phpBB Group